createdAt,value
2022-08-17T00:00:34.995Z,90.00
2022-08-17T00:03:08.323Z,90.00
2022-08-17T00:05:43.691Z,90.10
2022-08-17T00:08:13.018Z,90.10
2022-08-17T00:10:41.691Z,88.50
2022-08-17T00:13:12.533Z,89.30
2022-08-17T00:15:40.770Z,89.30
2022-08-17T00:19:06.680Z,89.20
2022-08-17T00:21:00.539Z,89.50
2022-08-17T00:23:29.379Z,89.50
2022-08-17T00:25:57.354Z,89.50
2022-08-17T00:28:25.819Z,89.30
2022-08-17T00:30:54.246Z,89.20
2022-08-17T00:33:25.531Z,89.60
2022-08-17T00:35:54.248Z,90.10
2022-08-17T00:38:24.091Z,90.10
2022-08-17T00:40:55.827Z,90.00
2022-08-17T00:43:29.753Z,90.10
2022-08-17T00:45:58.447Z,90.10
2022-08-17T00:48:30.090Z,90.20
2022-08-17T00:51:04.242Z,90.20
2022-08-17T00:53:36.831Z,90.30
2022-08-17T00:56:08.772Z,90.50
2022-08-17T00:58:37.896Z,90.60
2022-08-17T01:01:09.469Z,90.70
2022-08-17T01:03:39.847Z,90.90
2022-08-17T01:06:10.135Z,90.90
2022-08-17T01:08:41.093Z,91.00
2022-08-17T01:11:10.209Z,91.00
2022-08-17T01:13:41.996Z,91.00
2022-08-17T01:16:17.066Z,91.10
2022-08-17T01:18:47.187Z,91.30
2022-08-17T01:21:21.755Z,91.40
2022-08-17T01:23:51.462Z,91.00
2022-08-17T01:26:20.073Z,91.00
2022-08-17T01:28:54.029Z,91.00
2022-08-17T01:31:25.839Z,91.20
2022-08-17T01:33:53.916Z,91.40
2022-08-17T01:36:21.988Z,91.40
2022-08-17T01:38:51.586Z,91.40
2022-08-17T01:41:22.075Z,91.50
2022-08-17T01:43:55.173Z,91.50
2022-08-17T01:46:27.199Z,91.70
2022-08-17T01:48:56.167Z,92.00
2022-08-17T01:51:25.107Z,92.30
2022-08-17T01:53:58.484Z,92.60
2022-08-17T01:56:27.862Z,92.80
2022-08-17T01:58:55.841Z,93.00
2022-08-17T02:01:26.949Z,92.90
2022-08-17T02:03:59.570Z,92.90
2022-08-17T02:06:30.665Z,93.00
2022-08-17T02:09:02.689Z,92.90
2022-08-17T02:11:33.064Z,92.40
2022-08-17T02:14:03.339Z,92.30
2022-08-17T02:16:36.805Z,92.30
2022-08-17T02:19:05.628Z,92.40
2022-08-17T02:21:34.283Z,92.20
2022-08-17T02:24:04.376Z,92.40
2022-08-17T02:26:32.390Z,92.60
2022-08-17T02:29:00.469Z,92.90
2022-08-17T02:31:28.409Z,93.20
2022-08-17T02:34:00.417Z,93.30
2022-08-17T02:36:33.107Z,93.30
2022-08-17T02:39:01.664Z,93.40
2022-08-17T02:41:31.352Z,93.50
2022-08-17T02:43:59.655Z,93.60
2022-08-17T02:46:27.986Z,93.70
2022-08-17T02:48:56.015Z,93.70
2022-08-17T02:51:24.180Z,93.70
2022-08-17T02:53:52.349Z,93.60
2022-08-17T02:56:34.749Z,93.90
2022-08-17T02:59:02.734Z,94.00
2022-08-17T03:01:30.782Z,94.20
2022-08-17T03:03:58.919Z,94.30
2022-08-17T03:06:28.541Z,94.30
2022-08-17T03:08:56.487Z,94.10
2022-08-17T03:11:24.533Z,94.20
2022-08-17T03:13:54.007Z,94.40
2022-08-17T03:16:22.066Z,94.60
2022-08-17T03:18:50.019Z,94.60
2022-08-17T03:21:18.017Z,94.90
2022-08-17T03:23:46.306Z,95.00
2022-08-17T03:26:16.303Z,95.30
2022-08-17T03:28:45.155Z,95.50
2022-08-17T03:31:14.616Z,95.50
2022-08-17T03:33:42.673Z,95.50
2022-08-17T03:36:11.422Z,95.70
2022-08-17T03:38:39.639Z,95.40
2022-08-17T03:41:08.526Z,95.50
2022-08-17T03:43:36.622Z,95.90
2022-08-17T03:46:29.040Z,96.30
2022-08-17T03:49:23.137Z,96.00
2022-08-17T03:52:08.586Z,96.10
2022-08-17T03:54:54.309Z,96.20
2022-08-17T03:57:22.364Z,96.00
2022-08-17T03:59:50.582Z,96.10
2022-08-17T04:02:21.044Z,96.20
2022-08-17T04:04:51.345Z,96.10
2022-08-17T04:07:20.263Z,96.20
2022-08-17T04:09:48.859Z,96.60
2022-08-17T04:12:18.134Z,96.60
2022-08-17T04:14:53.307Z,96.60
2022-08-17T04:17:24.949Z,96.70
2022-08-17T04:19:55.163Z,96.40
2022-08-17T04:22:31.073Z,96.40
2022-08-17T04:25:06.783Z,96.40
2022-08-17T04:27:34.767Z,96.40
2022-08-17T04:30:03.447Z,96.80
2022-08-17T04:33:04.698Z,96.50
2022-08-17T04:35:23.612Z,96.70
2022-08-17T04:37:52.038Z,96.80
2022-08-17T04:40:38.997Z,97.10
2022-08-17T04:43:09.367Z,97.20
2022-08-17T04:45:55.686Z,97.00
2022-08-17T04:48:29.828Z,96.90
2022-08-17T04:51:09.606Z,97.10
2022-08-17T04:53:38.675Z,97.30
2022-08-17T04:56:07.446Z,97.50
2022-08-17T04:58:40.051Z,97.10
2022-08-17T05:01:08.416Z,97.20
2022-08-17T05:03:36.812Z,97.30
2022-08-17T05:06:06.468Z,97.60
2022-08-17T05:08:34.475Z,97.50
2022-08-17T05:11:02.718Z,97.60
2022-08-17T05:13:30.812Z,97.90
2022-08-17T05:16:00.896Z,98.30
2022-08-17T05:18:30.114Z,97.90
2022-08-17T05:20:58.601Z,97.90
2022-08-17T05:23:37.856Z,97.90
2022-08-17T05:26:11.677Z,97.80
2022-08-17T05:28:57.187Z,97.90
2022-08-17T05:31:27.886Z,97.90
2022-08-17T05:33:55.861Z,97.70
2022-08-17T05:36:41.984Z,97.80
2022-08-17T05:39:16.858Z,97.80
2022-08-17T05:41:46.588Z,97.70
2022-08-17T05:44:14.717Z,97.60
2022-08-17T05:46:49.024Z,97.40
2022-08-17T05:49:20.529Z,97.30
2022-08-17T05:52:13.436Z,97.40
2022-08-17T05:54:59.703Z,97.60
2022-08-17T05:57:43.517Z,97.00
2022-08-17T06:00:26.467Z,96.80
2022-08-17T06:03:18.354Z,96.60
2022-08-17T06:06:07.207Z,96.20
2022-08-17T06:08:41.078Z,95.80
2022-08-17T06:11:20.039Z,95.40
2022-08-17T06:13:59.138Z,95.50
2022-08-17T06:16:34.211Z,95.50
2022-08-17T06:19:07.342Z,95.40
2022-08-17T06:21:39.342Z,94.90
2022-08-17T06:24:15.987Z,94.70
2022-08-17T06:26:46.771Z,94.70
2022-08-17T06:29:22.489Z,94.60
2022-08-17T06:31:50.967Z,94.20
2022-08-17T06:34:21.650Z,94.00
2022-08-17T06:36:57.916Z,93.90
2022-08-17T06:39:42.673Z,93.80
2022-08-17T06:43:04.023Z,93.10
2022-08-17T06:45:13.186Z,92.80
2022-08-17T06:47:46.462Z,92.70
2022-08-17T06:50:21.106Z,92.70
2022-08-17T06:52:56.152Z,92.10
2022-08-17T06:55:34.464Z,91.70
2022-08-17T06:58:16.319Z,91.50
2022-08-17T07:00:48.828Z,91.80
2022-08-17T07:03:26.707Z,92.40
2022-08-17T07:05:58.784Z,92.20
2022-08-17T07:08:35.041Z,92.00
2022-08-17T07:11:09.046Z,91.50
2022-08-17T07:13:51.462Z,91.50
2022-08-17T07:16:27.612Z,92.10
2022-08-17T07:18:57.894Z,92.20
2022-08-17T07:21:43.927Z,91.90
2022-08-17T07:24:30.192Z,91.80
2022-08-17T07:27:08.165Z,91.50
2022-08-17T07:29:42.168Z,91.10
2022-08-17T07:32:12.158Z,90.90
2022-08-17T07:35:23.130Z,90.40
2022-08-17T07:38:25.457Z,90.70
2022-08-17T07:41:05.008Z,90.50
2022-08-17T07:43:35.362Z,90.20
2022-08-17T07:46:41.559Z,90.10
2022-08-17T07:49:35.126Z,90.40
2022-08-17T07:52:47.915Z,90.40
2022-08-17T07:54:56.388Z,90.30
2022-08-17T07:57:35.793Z,89.40
2022-08-17T08:00:32.363Z,88.50
2022-08-17T08:03:18.422Z,87.60
2022-08-17T08:05:56.037Z,86.40
2022-08-17T08:08:29.154Z,85.70
2022-08-17T08:11:07.387Z,84.90
2022-08-17T08:13:40.422Z,83.40
2022-08-17T08:16:23.974Z,82.30
2022-08-17T08:18:57.257Z,81.20
2022-08-17T08:21:37.460Z,80.40
2022-08-17T08:24:32.810Z,79.10
2022-08-17T08:27:11.312Z,78.50
2022-08-17T08:29:48.659Z,76.90
2022-08-17T08:32:22.140Z,74.80
2022-08-17T08:35:04.868Z,73.80
2022-08-17T08:37:44.607Z,72.60
2022-08-17T08:40:32.063Z,72.10
2022-08-17T08:43:10.849Z,71.80
2022-08-17T08:45:45.696Z,71.90
2022-08-17T08:48:56.816Z,72.10
2022-08-17T08:51:28.064Z,72.10
2022-08-17T08:54:04.891Z,71.70
2022-08-17T08:56:39.488Z,70.40
2022-08-17T08:59:17.955Z,69.50
2022-08-17T09:01:56.889Z,68.50
2022-08-17T09:05:02.803Z,67.00
2022-08-17T09:07:39.104Z,66.40
2022-08-17T09:10:13.934Z,66.70
2022-08-17T09:12:50.398Z,65.40
2022-08-17T09:15:23.079Z,65.20
2022-08-17T09:18:28.479Z,66.10
2022-08-17T09:20:52.024Z,66.80
2022-08-17T09:23:32.585Z,67.80
2022-08-17T09:26:07.813Z,67.50
2022-08-17T09:28:38.114Z,68.00
2022-08-17T09:31:10.687Z,67.50
2022-08-17T09:33:44.287Z,67.40
2022-08-17T09:36:17.497Z,67.10
2022-08-17T09:38:56.664Z,66.50
2022-08-17T09:41:32.522Z,66.50
2022-08-17T09:44:09.614Z,66.20
2022-08-17T09:46:56.920Z,64.50
2022-08-17T09:49:32.092Z,64.10
2022-08-17T09:52:04.579Z,63.60
2022-08-17T09:54:39.611Z,61.30
2022-08-17T09:57:31.470Z,60.00
2022-08-17T10:00:23.867Z,59.50
2022-08-17T10:03:17.187Z,58.20
2022-08-17T10:05:56.623Z,56.30
2022-08-17T10:08:33.883Z,56.40
2022-08-17T10:11:45.805Z,56.10
2022-08-17T10:14:37.537Z,56.50
2022-08-17T10:17:20.768Z,57.10
2022-08-17T10:19:56.038Z,56.80
2022-08-17T10:22:52.661Z,57.10
2022-08-17T10:25:54.142Z,57.10
2022-08-17T10:28:30.223Z,57.20
2022-08-17T10:31:31.070Z,55.60
2022-08-17T10:34:00.251Z,55.40
2022-08-17T10:36:39.304Z,53.90
2022-08-17T10:39:19.840Z,52.90
2022-08-17T10:41:52.954Z,51.50
2022-08-17T10:44:38.828Z,51.00
2022-08-17T10:47:11.809Z,50.40
2022-08-17T10:49:48.122Z,49.60
2022-08-17T10:52:48.728Z,49.20
2022-08-17T10:55:20.485Z,48.60
2022-08-17T10:57:50.712Z,48.90
2022-08-17T11:01:02.317Z,49.30
2022-08-17T11:03:33.352Z,48.70
2022-08-17T11:06:15.337Z,47.90
2022-08-17T11:09:22.308Z,47.30
2022-08-17T11:12:12.900Z,46.50
2022-08-17T11:14:57.956Z,46.30
2022-08-17T11:18:04.429Z,45.70
2022-08-17T11:21:05.145Z,45.10
2022-08-17T11:24:03.640Z,45.60
2022-08-17T11:26:36.158Z,46.60
2022-08-17T11:29:09.226Z,47.70
2022-08-17T11:31:40.581Z,48.40
2022-08-17T11:34:21.370Z,50.00
2022-08-17T11:37:34.911Z,50.20
2022-08-17T11:40:26.542Z,51.00
2022-08-17T11:43:08.819Z,52.10
2022-08-17T11:46:01.468Z,52.70
2022-08-17T11:48:56.550Z,53.70
2022-08-17T11:51:35.244Z,53.20
2022-08-17T11:54:31.870Z,54.00
2022-08-17T11:56:59.328Z,53.70
2022-08-17T11:59:59.036Z,54.40
2022-08-17T12:02:47.405Z,54.30
2022-08-17T12:05:33.341Z,54.40
2022-08-17T12:08:19.857Z,54.90
2022-08-17T12:11:04.428Z,54.40
2022-08-17T12:13:43.364Z,54.30
2022-08-17T12:16:16.661Z,55.10
2022-08-17T12:18:51.648Z,55.30
2022-08-17T12:21:46.318Z,54.90
2022-08-17T12:24:29.253Z,54.70
2022-08-17T12:27:01.615Z,54.90
2022-08-17T12:29:35.930Z,55.20
2022-08-17T12:32:14.161Z,55.30
2022-08-17T12:34:44.134Z,55.20
2022-08-17T12:37:18.410Z,55.20
2022-08-17T12:39:55.686Z,55.30
2022-08-17T12:42:31.342Z,55.10
2022-08-17T12:45:00.285Z,55.30
2022-08-17T12:47:30.436Z,55.70
2022-08-17T12:50:08.440Z,55.90
2022-08-17T12:53:01.110Z,55.80
2022-08-17T12:55:36.741Z,56.30
2022-08-17T12:58:09.932Z,56.50
2022-08-17T13:00:48.695Z,55.10
2022-08-17T13:03:20.076Z,55.60
2022-08-17T13:05:58.245Z,56.00
2022-08-17T13:08:30.542Z,55.60
2022-08-17T13:11:01.194Z,55.50
2022-08-17T13:13:33.695Z,54.90
2022-08-17T13:16:04.266Z,55.50
2022-08-17T13:18:45.122Z,54.20
2022-08-17T13:21:26.973Z,54.00
2022-08-17T13:23:57.812Z,53.10
2022-08-17T13:26:31.934Z,54.20
2022-08-17T13:29:03.392Z,52.40
2022-08-17T13:31:46.575Z,52.80
2022-08-17T13:34:36.948Z,54.10
2022-08-17T13:37:32.768Z,54.50
2022-08-17T13:40:03.155Z,54.00
2022-08-17T13:42:52.178Z,54.50
2022-08-17T13:45:50.825Z,55.60
2022-08-17T13:48:26.285Z,55.50
2022-08-17T13:51:16.294Z,56.00
2022-08-17T13:53:58.525Z,55.60
2022-08-17T13:56:38.902Z,54.90
2022-08-17T13:59:12.496Z,54.70
2022-08-17T14:01:49.644Z,55.00
2022-08-17T14:04:24.243Z,53.90
2022-08-17T14:06:56.183Z,53.80
2022-08-17T14:09:27.956Z,54.10
2022-08-17T14:11:58.846Z,54.70
2022-08-17T14:14:27.778Z,54.60
2022-08-17T14:16:58.161Z,54.40
2022-08-17T14:19:27.273Z,54.00
2022-08-17T14:21:58.775Z,53.90
2022-08-17T14:24:29.773Z,54.00
2022-08-17T14:26:58.372Z,53.60
2022-08-17T14:29:29.170Z,53.10
2022-08-17T14:32:03.271Z,52.90
2022-08-17T14:34:31.500Z,53.20
2022-08-17T14:36:59.633Z,53.40
2022-08-17T14:39:28.878Z,52.70
2022-08-17T14:41:58.390Z,52.10
2022-08-17T14:44:26.562Z,51.90
2022-08-17T14:46:54.615Z,52.10
2022-08-17T14:49:26.106Z,52.20
2022-08-17T14:51:54.226Z,51.80
2022-08-17T14:54:33.610Z,51.80
2022-08-17T14:57:11.561Z,51.20
2022-08-17T14:59:53.229Z,50.80
2022-08-17T15:02:29.638Z,50.30
2022-08-17T15:05:02.448Z,50.40
2022-08-17T15:07:31.355Z,50.20
2022-08-17T15:10:01.469Z,50.40
2022-08-17T15:12:33.675Z,49.60
2022-08-17T15:15:04.731Z,49.90
2022-08-17T15:17:45.063Z,51.30
2022-08-17T15:20:17.106Z,51.40
2022-08-17T15:22:46.742Z,51.80
2022-08-17T15:25:15.857Z,52.10
2022-08-17T15:27:44.056Z,52.30
2022-08-17T15:30:13.493Z,52.00
2022-08-17T15:32:51.377Z,51.80
2022-08-17T15:35:28.069Z,50.70
2022-08-17T15:37:57.581Z,50.70
2022-08-17T15:40:26.153Z,50.70
2022-08-17T15:42:54.381Z,52.00
2022-08-17T15:45:28.312Z,52.50
2022-08-17T15:47:56.374Z,52.60
2022-08-17T15:50:26.027Z,51.70
2022-08-17T15:52:57.930Z,50.70
2022-08-17T15:55:27.657Z,50.80
2022-08-17T15:57:55.840Z,51.60
2022-08-17T16:00:25.814Z,51.20
2022-08-17T16:03:46.148Z,51.20
2022-08-17T16:05:44.155Z,51.70
2022-08-17T16:08:20.131Z,52.20
2022-08-17T16:10:49.153Z,51.80
2022-08-17T16:13:18.259Z,52.00
2022-08-17T16:15:54.851Z,52.30
2022-08-17T16:18:28.344Z,52.30
2022-08-17T16:20:57.895Z,52.30
2022-08-17T16:23:26.208Z,52.00
2022-08-17T16:25:54.587Z,53.70
2022-08-17T16:28:35.662Z,54.50
2022-08-17T16:31:08.019Z,55.00
2022-08-17T16:33:37.633Z,54.60
2022-08-17T16:36:08.479Z,54.50
2022-08-17T16:38:36.902Z,55.20
2022-08-17T16:41:06.008Z,55.50
2022-08-17T16:43:34.417Z,55.70
2022-08-17T16:46:03.257Z,55.80
2022-08-17T16:48:31.723Z,56.10
2022-08-17T16:51:04.480Z,56.30
2022-08-17T16:53:34.190Z,56.20
2022-08-17T16:56:03.701Z,56.70
2022-08-17T16:58:31.833Z,56.80
2022-08-17T17:01:00.149Z,56.70
2022-08-17T17:03:30.429Z,57.10
2022-08-17T17:06:13.717Z,57.10
2022-08-17T17:08:50.756Z,57.40
2022-08-17T17:11:25.967Z,57.20
2022-08-17T17:13:57.987Z,57.40
2022-08-17T17:16:36.513Z,57.80
2022-08-17T17:19:12.382Z,57.60
2022-08-17T17:21:47.984Z,57.70
2022-08-17T17:24:26.239Z,57.80
2022-08-17T17:27:15.631Z,58.60
2022-08-17T17:30:00.709Z,58.10
2022-08-17T17:32:38.069Z,58.50
2022-08-17T17:35:12.548Z,59.00
2022-08-17T17:37:43.949Z,59.20
2022-08-17T17:40:20.635Z,59.10
2022-08-17T17:42:52.029Z,59.20
2022-08-17T17:45:25.985Z,59.30
2022-08-17T17:47:54.564Z,59.50
2022-08-17T17:50:37.461Z,59.20
2022-08-17T17:53:09.373Z,60.00
2022-08-17T17:55:55.414Z,59.50
2022-08-17T17:58:34.794Z,59.60
2022-08-17T18:01:17.499Z,59.90
2022-08-17T18:04:00.285Z,60.00
2022-08-17T18:06:39.792Z,60.10
2022-08-17T18:09:23.299Z,60.20
2022-08-17T18:12:05.500Z,60.40
2022-08-17T18:14:52.613Z,60.60
2022-08-17T18:17:20.799Z,60.80
2022-08-17T18:19:48.859Z,61.00
2022-08-17T18:22:19.635Z,61.30
2022-08-17T18:24:54.247Z,61.30
2022-08-17T18:27:31.541Z,61.50
2022-08-17T18:30:03.437Z,61.60
2022-08-17T18:32:38.177Z,61.60
2022-08-17T18:35:32.721Z,61.90
2022-08-17T18:38:21.496Z,61.90
2022-08-17T18:41:00.838Z,62.30
2022-08-17T18:43:44.275Z,62.30
2022-08-17T18:46:28.918Z,63.00
2022-08-17T18:48:59.847Z,62.40
2022-08-17T18:51:40.400Z,62.70
2022-08-17T18:54:21.583Z,63.00
2022-08-17T18:56:54.773Z,63.60
2022-08-17T18:59:33.560Z,64.20
2022-08-17T19:02:27.313Z,64.60
2022-08-17T19:05:10.460Z,64.00
2022-08-17T19:07:41.926Z,64.50
2022-08-17T19:10:22.038Z,63.20
2022-08-17T19:13:00.211Z,63.30
2022-08-17T19:15:36.549Z,63.90
2022-08-17T19:18:12.080Z,63.80
2022-08-17T19:20:46.708Z,64.40
2022-08-17T19:23:20.357Z,65.50
2022-08-17T19:25:52.652Z,65.40
2022-08-17T19:28:25.109Z,63.70
2022-08-17T19:30:59.514Z,63.50
2022-08-17T19:33:27.971Z,63.70
2022-08-17T19:36:06.397Z,63.80
2022-08-17T19:38:54.792Z,64.10
2022-08-17T19:41:30.891Z,64.10
2022-08-17T19:44:13.202Z,64.10
2022-08-17T19:46:50.579Z,64.20
2022-08-17T19:49:40.943Z,64.40
2022-08-17T19:52:24.173Z,64.10
2022-08-17T19:54:57.507Z,63.80
2022-08-17T19:57:37.912Z,64.10
2022-08-17T20:00:11.253Z,64.40
2022-08-17T20:02:53.405Z,64.60
2022-08-17T20:05:25.302Z,64.60
2022-08-17T20:07:58.383Z,64.80
2022-08-17T20:10:41.405Z,65.00
2022-08-17T20:13:13.379Z,65.20
2022-08-17T20:15:43.898Z,65.90
2022-08-17T20:18:21.117Z,65.30
2022-08-17T20:20:58.338Z,65.50
2022-08-17T20:23:46.436Z,65.90
2022-08-17T20:26:22.293Z,66.20
2022-08-17T20:29:09.967Z,66.40
2022-08-17T20:31:44.586Z,66.50
2022-08-17T20:34:37.019Z,66.80
2022-08-17T20:37:08.899Z,67.10
2022-08-17T20:39:40.728Z,67.90
2022-08-17T20:42:28.609Z,67.50
2022-08-17T20:44:58.926Z,67.70
2022-08-17T20:47:32.896Z,67.90
2022-08-17T20:50:06.899Z,67.90
2022-08-17T20:52:50.824Z,68.00
2022-08-17T20:55:53.406Z,68.30
2022-08-17T20:58:47.386Z,68.30
2022-08-17T21:01:24.255Z,68.50
2022-08-17T21:03:52.759Z,68.50
2022-08-17T21:06:24.987Z,68.50
2022-08-17T21:08:59.687Z,68.50
2022-08-17T21:11:56.961Z,68.50
2022-08-17T21:14:44.239Z,68.30
2022-08-17T21:17:38.245Z,68.20
2022-08-17T21:20:15.967Z,68.20
2022-08-17T21:22:57.753Z,68.20
2022-08-17T21:26:04.865Z,68.20
2022-08-17T21:29:01.310Z,67.60
2022-08-17T21:31:34.176Z,67.60
2022-08-17T21:34:33.009Z,67.40
2022-08-17T21:37:29.504Z,67.40
2022-08-17T21:40:01.517Z,67.20
2022-08-17T21:42:32.517Z,66.90
2022-08-17T21:45:11.800Z,66.50
2022-08-17T21:47:48.937Z,67.20
2022-08-17T21:50:20.538Z,66.90
2022-08-17T21:52:50.096Z,66.90
2022-08-17T21:55:29.104Z,66.80
2022-08-17T21:58:14.277Z,67.00
2022-08-17T22:00:45.037Z,66.70
2022-08-17T22:03:27.390Z,66.00
2022-08-17T22:05:55.603Z,66.10
2022-08-17T22:08:26.019Z,66.30
2022-08-17T22:11:03.018Z,65.00
2022-08-17T22:13:31.409Z,65.00
2022-08-17T22:16:15.420Z,65.30
2022-08-17T22:18:58.165Z,66.10
2022-08-17T22:21:27.740Z,67.40
2022-08-17T22:24:08.204Z,71.60
2022-08-17T22:27:01.364Z,80.00
2022-08-17T22:29:45.359Z,82.30
2022-08-17T22:32:32.444Z,86.40
2022-08-17T22:35:38.404Z,88.80
2022-08-17T22:38:26.697Z,90.00
2022-08-17T22:40:58.493Z,91.90
2022-08-17T22:43:29.862Z,93.90
2022-08-17T22:46:01.615Z,96.90
2022-08-17T22:48:31.444Z,98.30
2022-08-17T22:51:12.849Z,99.90
2022-08-17T22:54:05.288Z,99.90
2022-08-17T22:56:51.827Z,99.90
2022-08-17T22:59:39.605Z,99.90
2022-08-17T23:02:18.023Z,99.90
2022-08-17T23:04:48.850Z,99.90
2022-08-17T23:07:17.627Z,99.90
2022-08-17T23:09:45.879Z,99.90
2022-08-17T23:12:18.051Z,99.90
2022-08-17T23:14:51.466Z,99.90
2022-08-17T23:17:19.519Z,99.90
2022-08-17T23:19:47.603Z,99.90
2022-08-17T23:22:15.810Z,99.90
2022-08-17T23:24:48.896Z,99.90
2022-08-17T23:27:17.290Z,99.90
2022-08-17T23:29:48.644Z,99.90
2022-08-17T23:32:19.269Z,99.90
2022-08-17T23:34:50.607Z,99.90
2022-08-17T23:37:20.285Z,99.90
2022-08-17T23:39:48.386Z,99.90
2022-08-17T23:42:21.840Z,99.90
2022-08-17T23:44:51.332Z,99.90
2022-08-17T23:47:19.623Z,99.90
2022-08-17T23:49:47.834Z,99.90
2022-08-17T23:52:16.928Z,99.90
2022-08-17T23:54:48.498Z,99.90
2022-08-17T23:57:19.356Z,99.90
2022-08-17T23:59:47.749Z,99.90
